Time;durP1;ratioP1;P1;durP2;ratioP2;P2;SDS_P1;SDS_P2;PMS_P1;PMS_P2;Temp;Humidity;BMP_temperature;BMP_pressure;BME280_temperature;BME280_humidity;BME280_pressure;Samples;Min_cycle;Max_cycle;Signal;HPM_P1;HPM_P2
2021/10/22 00:02:20;;;;;;;4.70;1.48;;;7.10;99.90;;;5.44;98.68;101137.38;2569745;30;138279;-38
2021/10/22 00:04:48;;;;;;;15.45;2.22;;;7.10;99.90;;;5.38;98.45;101135.38;2569463;30;137514;-38
2021/10/22 00:07:16;;;;;;;8.88;1.70;;;7.00;99.90;;;5.29;98.83;101124.53;2568583;30;138312;-38
2021/10/22 00:09:44;;;;;;;9.27;1.70;;;7.00;99.90;;;5.35;98.49;101135.72;2569172;30;137235;-38
2021/10/22 00:12:11;;;;;;;;;;;7.00;99.90;;;5.34;98.09;101134.84;2569369;30;137910;-38
2021/10/22 00:14:39;;;;;;;6.57;1.50;;;7.00;99.90;;;5.32;97.71;101143.16;2570166;30;136905;-38
2021/10/22 00:17:08;;;;;;;4.90;1.45;;;7.00;99.90;;;5.25;98.35;101136.72;2569873;30;138358;-38
2021/10/22 00:19:37;;;;;;;8.40;1.50;;;7.00;99.90;;;5.22;98.55;101134.34;2568079;30;137445;-38
2021/10/22 00:22:04;;;;;;;8.63;1.67;;;6.90;99.90;;;5.21;98.93;101135.34;2570236;30;138193;-38
2021/10/22 00:24:32;;;;;;;;;;;6.90;99.90;;;5.23;99.08;101138.75;2570703;30;137056;-37
2021/10/22 00:26:59;;;;;;;6.90;1.65;;;6.90;99.90;;;5.23;98.96;101137.91;2567655;30;138288;-38
2021/10/22 00:29:27;;;;;;;5.47;1.40;;;6.90;99.90;;;5.25;99.26;101144.81;2569945;30;137450;-38
2021/10/22 00:31:55;;;;;;;6.70;1.65;;;6.90;99.90;;;5.24;99.60;101151.25;2569154;30;138813;-38
2021/10/22 00:34:22;;;;;;;9.80;1.92;;;6.90;99.90;;;5.22;99.91;101130.81;2569156;30;137461;-37
2021/10/22 00:36:51;;;;;;;3.78;1.35;;;6.90;99.90;;;5.23;100.00;101136.03;2567752;30;138842;-38
2021/10/22 00:39:18;;;;;;;8.00;1.90;;;6.90;99.90;;;5.23;100.00;101146.84;2568551;30;137594;-38
2021/10/22 00:41:49;;;;;;;5.53;1.33;;;6.90;99.90;;;5.16;100.00;101149.38;2568294;30;137430;-38
2021/10/22 00:44:17;;;;;;;5.53;1.25;;;6.80;99.90;;;5.10;100.00;101143.81;2569731;30;137689;-36
2021/10/22 00:46:45;;;;;;;5.82;2.05;;;6.80;99.90;;;5.09;99.91;101147.53;2570121;30;138873;-38
2021/10/22 00:49:13;;;;;;;6.72;1.40;;;6.80;99.90;;;5.06;99.37;101153.28;2570479;30;138133;-38
2021/10/22 00:51:43;;;;;;;7.22;1.95;;;6.80;99.90;;;5.04;98.61;101145.34;2566875;30;139381;-38
2021/10/22 00:54:11;;;;;;;6.75;1.80;;;6.80;99.90;;;5.02;98.24;101150.06;2569270;30;137443;-38
2021/10/22 00:56:39;;;;;;;9.27;2.20;;;6.70;99.90;;;5.00;98.41;101147.53;2568503;30;139153;-38
2021/10/22 00:59:07;;;;;;;5.72;1.88;;;6.70;99.90;;;5.00;97.97;101155.63;2568528;30;137101;-38
2021/10/22 01:01:39;;;;;;;8.60;1.65;;;6.70;99.90;;;4.95;97.95;101152.59;2569650;30;139323;-38
2021/10/22 01:04:08;;;;;;;10.07;1.80;;;6.60;99.90;;;4.91;98.18;101148.53;2567997;30;136819;-38
2021/10/22 01:06:41;;;;;;;7.68;1.98;;;6.60;99.90;;;4.78;98.54;101150.91;2568050;30;138612;-38
2021/10/22 01:09:11;;;;;;;8.70;2.10;;;6.50;99.90;;;4.80;98.19;101155.09;2568482;30;137322;-38
2021/10/22 01:11:40;;;;;;;6.78;2.10;;;6.50;99.90;;;4.81;98.60;101153.25;2570162;30;138227;-38
2021/10/22 01:14:08;;;;;;;6.53;1.63;;;6.50;99.90;;;4.80;98.69;101157.81;2567036;30;137061;-38
2021/10/22 01:16:39;;;;;;;7.85;1.67;;;6.50;99.90;;;4.74;98.97;101159.31;2570638;30;138256;-38
2021/10/22 01:19:15;;;;;;;5.35;1.40;;;6.50;99.90;;;4.68;99.48;101167.25;2567326;30;137905;-38
2021/10/22 01:21:47;;;;;;;7.57;1.80;;;6.40;99.90;;;4.68;99.08;101156.44;2567518;30;138473;-38
2021/10/22 01:24:18;;;;;;;9.18;1.67;;;6.40;99.90;;;4.73;99.23;101156.78;2568965;30;137355;-37
2021/10/22 01:26:48;;;;;;;8.25;1.85;;;6.40;99.90;;;4.67;99.44;101144.78;2567866;30;138578;-38
2021/10/22 01:29:17;;;;;;;5.10;1.55;;;6.40;99.90;;;4.65;99.68;101152.19;2569929;30;137437;-38
2021/10/22 01:31:45;;;;;;;10.13;1.98;;;6.40;99.90;;;4.67;99.70;101143.94;2569403;30;138296;-38
2021/10/22 01:34:13;;;;;;;5.97;1.60;;;6.40;99.90;;;4.60;100.00;101146.44;2568026;30;137595;-38
2021/10/22 01:36:41;;;;;;;8.15;1.95;;;6.30;99.90;;;4.51;100.00;101148.28;2567558;30;138189;-38
2021/10/22 01:39:09;;;;;;;6.43;1.90;;;6.30;99.90;;;4.49;100.00;101146.75;2569356;30;136901;-38
2021/10/22 01:41:36;;;;;;;9.95;1.88;;;6.20;99.90;;;4.50;100.00;101152.00;2566894;30;138350;-38
2021/10/22 01:44:07;;;;;;;8.88;1.77;;;6.20;99.90;;;4.46;100.00;101147.94;2569051;30;137504;-38
2021/10/22 01:46:34;;;;;;;10.30;1.95;;;6.20;99.90;;;4.44;100.00;101145.38;2569315;30;137266;-38
2021/10/22 01:49:02;;;;;;;8.70;1.83;;;6.20;99.90;;;4.40;100.00;101135.91;2568876;30;138206;-38
2021/10/22 01:51:29;;;;;;;7.72;2.10;;;6.10;99.90;;;4.35;100.00;101138.28;2567796;30;138946;-38
2021/10/22 01:53:57;;;;;;;9.48;2.20;;;6.10;99.90;;;4.38;100.00;101139.81;2573207;30;137642;-38
2021/10/22 01:56:25;;;;;;;12.45;1.98;;;6.10;99.90;;;4.32;100.00;101135.91;2568400;30;137121;-38
2021/10/22 01:58:52;;;;;;;5.93;1.92;;;6.10;99.90;;;4.38;100.00;101135.25;2570593;30;137088;-38
2021/10/22 02:01:20;;;;;;;11.43;2.28;;;6.10;99.90;;;4.32;100.00;101136.72;2570672;30;137228;-38
2021/10/22 02:03:47;;;;;;;12.60;2.45;;;6.10;99.90;;;4.34;100.00;101131.19;2570839;30;136748;-38
2021/10/22 02:06:15;;;;;;;7.80;2.13;;;6.10;99.90;;;4.28;100.00;101121.88;2569799;30;138243;-38
2021/10/22 02:08:42;;;;;;;7.38;2.17;;;6.00;99.90;;;4.22;100.00;101119.81;2569753;30;137503;-38
2021/10/22 02:11:10;;;;;;;9.18;2.50;;;6.00;99.90;;;4.24;100.00;101125.91;2569713;30;139310;-38
2021/10/22 02:13:37;;;;;;;8.95;2.15;;;6.00;99.90;;;4.29;100.00;101126.25;2569805;30;136802;-38
2021/10/22 02:16:05;;;;;;;13.88;2.65;;;6.00;99.90;;;4.29;100.00;101118.16;2570997;30;139282;-38
2021/10/22 02:18:33;;;;;;;9.13;2.30;;;6.00;99.90;;;4.29;100.00;101122.72;2573502;30;137476;-38
2021/10/22 02:21:00;;;;;;;8.05;1.90;;;6.00;99.90;;;4.30;100.00;101121.72;2569127;30;138270;-38
2021/10/22 02:23:28;;;;;;;9.35;2.03;;;6.00;99.90;;;4.26;100.00;101123.06;2573844;30;137999;-40
2021/10/22 02:25:55;;;;;;;11.23;2.42;;;6.00;99.90;;;4.29;100.00;101122.72;2565240;30;139208;-39
2021/10/22 02:28:23;;;;;;;9.20;2.42;;;6.00;99.90;;;4.24;100.00;101134.00;2567565;30;137503;-39
2021/10/22 02:30:50;;;;;;;9.00;2.17;;;6.00;99.90;;;4.15;100.00;101132.28;2568342;30;138253;-39
2021/10/22 02:33:18;;;;;;;16.23;2.55;;;5.90;99.90;;;4.12;100.00;101129.94;2568139;30;137627;-39
2021/10/22 02:35:46;;;;;;;8.75;2.80;;;5.90;99.90;;;4.14;100.00;101134.13;2567824;30;138200;-39
2021/10/22 02:38:14;;;;;;;10.93;2.45;;;5.90;99.90;;;4.14;100.00;101133.31;2566483;30;137617;-39
2021/10/22 02:40:41;;;;;;;6.43;2.22;;;5.90;99.90;;;4.11;100.00;101128.19;2568584;30;138495;-40
2021/10/22 02:43:12;;;;;;;8.85;2.10;;;5.90;99.90;;;4.11;100.00;101129.06;2568809;30;137461;-40
2021/10/22 02:45:39;;;;;;;10.95;3.40;;;5.90;99.90;;;4.08;100.00;101126.69;2568330;30;138180;-39
2021/10/22 02:48:07;;;;;;;8.05;2.08;;;5.80;99.90;;;4.05;100.00;101126.16;2567474;30;137913;-39
2021/10/22 02:50:35;;;;;;;;;;;5.80;99.90;;;3.99;100.00;101127.69;2568512;30;138427;-39
2021/10/22 02:53:03;;;;;;;7.00;2.10;;;5.70;99.90;;;3.92;100.00;101119.38;2568328;30;137226;-39
2021/10/22 02:55:31;;;;;;;6.88;1.88;;;5.70;99.90;;;3.98;100.00;101124.13;2568693;30;138389;-39
2021/10/22 02:58:00;;;;;;;10.13;2.45;;;5.70;99.90;;;4.01;100.00;101122.97;2568405;30;137490;-40
2021/10/22 03:00:27;;;;;;;10.38;2.53;;;5.70;99.90;;;4.00;100.00;101132.06;2569749;30;137481;-39
2021/10/22 03:02:55;;;;;;;9.48;2.28;;;5.70;99.90;;;3.91;100.00;101127.63;2567252;30;137472;-39
2021/10/22 03:05:23;;;;;;;9.00;2.22;;;5.70;99.90;;;3.89;100.00;101122.41;2568762;30;137509;-39
2021/10/22 03:07:51;;;;;;;10.55;2.50;;;5.70;99.90;;;3.83;100.00;101126.56;2567576;30;138301;-39
2021/10/22 03:10:19;;;;;;;9.10;1.95;;;5.60;99.90;;;3.85;100.00;101123.72;2568478;30;138194;-40
2021/10/22 03:12:46;;;;;;;9.18;2.22;;;5.60;99.90;;;3.84;100.00;101133.66;2567355;30;137224;-39
2021/10/22 03:15:16;;;;;;;11.80;2.85;;;5.60;99.90;;;3.80;100.00;101132.28;2567314;30;138307;-39
2021/10/22 03:17:43;;;;;;;6.18;2.00;;;5.60;99.90;;;3.78;99.95;101137.00;2568562;30;136820;-39
2021/10/22 03:20:12;;;;;;;8.43;2.33;;;5.60;99.90;;;3.84;99.90;101130.09;2567977;30;138458;-39
2021/10/22 03:22:40;;;;;;;10.07;2.17;;;5.60;99.90;;;3.83;99.68;101126.56;2568294;30;137565;-39
2021/10/22 03:25:09;;;;;;;8.82;1.83;;;5.60;99.90;;;3.85;99.58;101129.94;2568803;30;137329;-39
2021/10/22 03:27:37;;;;;;;9.70;2.13;;;5.60;99.90;;;3.78;99.46;101115.41;2568657;30;136648;-39
2021/10/22 03:30:06;;;;;;;10.27;2.20;;;5.60;99.90;;;3.78;99.00;101110.03;2569271;30;137179;-39
2021/10/22 03:32:34;;;;;;;8.77;2.17;;;5.60;99.90;;;3.73;99.11;101115.88;2566785;30;136983;-39
2021/10/22 03:35:05;;;;;;;11.60;1.92;;;5.50;99.90;;;3.74;99.03;101106.78;2567966;30;139023;-39
2021/10/22 03:37:33;;;;;;;6.93;1.70;;;5.50;99.90;;;3.74;99.06;101104.09;2567012;30;137718;-39
2021/10/22 03:40:01;;;;;;;;;;;5.50;99.90;;;3.68;98.93;101102.03;2568725;30;137328;-39
2021/10/22 03:42:29;;;;;;;9.15;2.33;;;5.50;99.90;;;3.78;98.85;101095.66;2567984;30;137717;-39
2021/10/22 03:44:57;;;;;;;12.10;2.20;;;5.50;99.90;;;3.77;98.19;101089.44;2566278;30;138340;-39
2021/10/22 03:47:25;;;;;;;6.78;1.77;;;5.50;99.90;;;3.81;98.21;101093.50;2566564;30;137735;-39
2021/10/22 03:49:53;;;;;;;8.93;2.28;;;5.50;99.90;;;3.88;97.08;101091.84;2567835;30;138825;-39
2021/10/22 03:52:21;;;;;;;7.32;1.90;;;5.60;99.90;;;3.84;97.00;101101.28;2565803;30;137216;-39
2021/10/22 03:54:48;;;;;;;;;;;5.60;99.90;;;3.83;96.60;101104.97;2566520;30;138327;-39
2021/10/22 03:57:16;;;;;;;6.68;1.75;;;5.60;99.90;;;3.83;96.99;101107.69;2567385;30;136813;-39
2021/10/22 03:59:44;;;;;;;10.18;2.28;;;5.60;99.90;;;3.83;96.85;101102.28;2567247;30;139283;-39
2021/10/22 04:02:11;;;;;;;8.55;2.30;;;5.60;99.90;;;3.82;96.53;101111.38;2567386;30;137633;-39
2021/10/22 04:04:39;;;;;;;9.75;1.92;;;5.50;99.90;;;3.83;96.67;101104.13;2568703;30;139225;-39
2021/10/22 04:07:06;;;;;;;9.75;2.30;;;5.60;99.90;;;3.80;96.10;101097.22;2568312;30;137429;-39
2021/10/22 04:09:35;;;;;;;9.27;1.98;;;5.60;99.90;;;3.88;95.52;101109.91;2567685;30;138188;-39
2021/10/22 04:12:02;;;;;;;;;;;5.60;99.90;;;3.93;95.25;101110.25;2566042;30;137212;-39
2021/10/22 04:14:30;;;;;;;8.38;1.70;;;5.60;99.90;;;3.92;95.84;101096.91;2569013;30;139372;-39
2021/10/22 04:16:59;;;;;;;10.48;2.03;;;5.60;99.90;;;3.90;95.78;101097.09;2566056;30;137219;-39
2021/10/22 04:19:27;;;;;;;8.88;1.98;;;5.60;99.90;;;3.82;95.80;101094.31;2568010;30;139132;-39
2021/10/22 04:21:54;;;;;;;7.28;1.70;;;5.60;99.90;;;3.87;95.55;101095.53;2569023;30;137414;-39
2021/10/22 04:24:23;;;;;;;7.35;1.80;;;5.60;99.90;;;3.86;95.83;101093.03;2567395;30;136896;-39
2021/10/22 04:26:51;;;;;;;11.13;2.20;;;5.60;99.90;;;3.91;95.48;101097.91;2566324;30;138778;-39
2021/10/22 04:29:19;;;;;;;8.18;1.70;;;5.60;99.90;;;3.88;95.19;101094.53;2566025;30;137419;-39
2021/10/22 04:31:46;;;;;;;6.95;1.90;;;5.60;99.90;;;3.81;95.30;101098.03;2567752;30;136683;-39
2021/10/22 04:34:14;;;;;;;8.38;2.10;;;5.60;99.90;;;3.77;95.14;101086.72;2567572;30;138502;-39
2021/10/22 04:36:42;;;;;;;11.55;1.85;;;5.50;99.90;;;3.90;95.33;101083.59;2567732;30;136716;-39
2021/10/22 04:41:56;;;;;;;10.13;1.98;;;5.60;99.90;;;3.77;94.89;101088.56;2569539;30;137547;-39
2021/10/22 04:44:26;;;;;;;7.93;1.50;;;5.50;99.90;;;3.83;95.14;101088.78;2566234;30;137119;-39
2021/10/22 04:46:54;;;;;;;8.25;1.92;;;5.50;99.90;;;3.82;94.95;101088.94;2567757;30;138767;-40
2021/10/22 04:49:22;;;;;;;9.60;2.05;;;5.50;99.90;;;3.82;94.69;101092.50;2567792;30;138894;-39
2021/10/22 04:51:49;;;;;;;10.50;1.73;;;5.50;99.90;;;3.79;95.17;101097.34;2567957;30;138318;-41
2021/10/22 04:54:17;;;;;;;8.63;2.25;;;5.50;99.90;;;3.76;95.10;101097.69;2567123;30;137700;-40
2021/10/22 04:56:44;;;;;;;9.10;2.22;;;5.50;99.90;;;3.89;94.46;101098.94;2567908;30;137575;-39
2021/10/22 04:59:12;;;;;;;11.48;2.25;;;5.60;99.90;;;3.88;94.27;101101.81;2567592;30;137292;-39
2021/10/22 05:01:39;;;;;;;6.20;1.98;;;5.60;99.90;;;3.86;94.17;101110.06;2567756;30;137158;-39
2021/10/22 05:04:07;;;;;;;9.55;2.42;;;5.60;99.90;;;3.84;94.10;101114.75;2567162;30;137109;-39
2021/10/22 05:06:35;;;;;;;7.22;2.35;;;5.60;99.90;;;3.90;94.18;101118.69;2567459;30;137550;-39
2021/10/22 05:09:02;;;;;;;11.77;2.60;;;5.60;99.90;;;3.87;93.85;101124.41;2567721;30;137146;-39
2021/10/22 05:11:30;;;;;;;11.07;2.33;;;5.60;99.90;;;3.86;94.13;101128.13;2566804;30;137042;-39
2021/10/22 05:13:57;;;;;;;5.13;1.73;;;5.60;99.90;;;3.94;93.86;101138.09;2566952;30;137343;-39
2021/10/22 05:16:25;;;;;;;10.75;2.20;;;5.70;99.90;;;3.95;93.01;101129.84;2566434;30;137339;-39
2021/10/22 05:18:53;;;;;;;7.15;2.10;;;5.70;99.90;;;4.03;92.43;101131.75;2568278;30;138160;-39
2021/10/22 05:21:20;;;;;;;7.90;2.08;;;5.70;99.90;;;4.01;92.50;101139.16;2569395;30;137313;-39
2021/10/22 05:23:48;;;;;;;8.30;2.30;;;5.70;99.90;;;4.09;92.18;101131.09;2569419;30;138307;-39
2021/10/22 05:26:15;;;;;;;9.93;1.90;;;5.80;99.90;;;4.11;92.68;101136.31;2567666;30;137433;-39
2021/10/22 05:28:43;;;;;;;9.65;2.38;;;5.80;99.90;;;4.07;92.54;101127.69;2566985;30;139047;-39
2021/10/22 05:31:10;;;;;;;10.57;2.50;;;5.80;99.90;;;4.05;92.64;101128.84;2566992;30;137551;-39
2021/10/22 05:33:38;;;;;;;9.45;1.83;;;5.70;99.90;;;4.03;92.24;101134.44;2567725;30;137628;-39
2021/10/22 05:36:05;;;;;;;6.93;1.75;;;5.80;99.90;;;4.04;92.96;101138.84;2567757;30;137555;-39
2021/10/22 05:38:33;;;;;;;10.80;2.30;;;5.70;99.90;;;4.12;92.93;101136.16;2566905;30;138419;-39
2021/10/22 05:41:01;;;;;;;;;;;5.80;99.90;;;4.10;91.65;101134.63;2568617;30;138209;-39
2021/10/22 05:43:28;;;;;;;6.45;1.95;;;5.80;99.90;;;4.12;92.19;101132.63;2568622;30;136774;-39
2021/10/22 05:45:56;;;;;;;9.32;2.30;;;5.80;99.90;;;4.12;91.91;101128.06;2566258;30;137918;-39
2021/10/22 05:48:24;;;;;;;;;;;5.80;99.90;;;4.13;91.55;101127.03;2568572;30;136827;-39
2021/10/22 05:50:51;;;;;;;13.38;2.45;;;5.80;99.90;;;4.10;91.69;101121.97;2567392;30;137344;-39
2021/10/22 05:53:19;;;;;;;8.35;2.33;;;5.80;99.90;;;4.16;92.03;101123.19;2565373;30;138677;-39
2021/10/22 05:55:46;;;;;;;7.28;2.15;;;5.80;99.90;;;4.09;91.85;101119.41;2566633;30;138294;-39
2021/10/22 05:58:14;;;;;;;7.25;2.03;;;5.80;99.90;;;4.14;92.22;101107.13;2566361;30;137423;-39
2021/10/22 06:00:43;;;;;;;6.50;1.83;;;5.80;99.90;;;4.04;92.28;101103.72;2567551;30;136728;-39
2021/10/22 06:03:10;;;;;;;14.43;2.28;;;5.80;99.90;;;4.05;92.59;101100.03;2566097;30;138854;-39
2021/10/22 06:05:39;;;;;;;14.85;2.38;;;5.80;99.90;;;4.11;91.36;101101.19;2568225;30;138328;-39
2021/10/22 06:08:10;;;;;;;8.27;2.20;;;5.80;99.90;;;4.11;91.85;101110.16;2566776;30;137593;-40
2021/10/22 06:10:37;;;;;;;12.20;2.20;;;5.80;99.90;;;4.14;90.58;101106.31;2568647;30;136860;-39
2021/10/22 06:13:05;;;;;;;11.05;1.88;;;5.80;99.90;;;4.13;90.95;101104.63;2565937;30;137290;-39
2021/10/22 06:15:32;;;;;;;;;;;5.80;99.90;;;4.11;91.83;101112.00;2566695;30;138193;-39
2021/10/22 06:18:00;;;;;;;10.75;2.22;;;5.80;99.90;;;4.11;91.20;101109.31;2565915;30;138998;-39
2021/10/22 06:20:31;;;;;;;8.35;1.85;;;5.80;99.90;;;4.20;90.76;101093.97;2567285;30;137696;-40
2021/10/22 06:25:43;;;;;;;12.98;2.05;;;5.90;99.90;;;4.28;89.80;101092.16;2566469;30;137636;-39
2021/10/22 06:28:11;;;;;;;8.25;2.10;;;5.90;99.90;;;4.36;90.35;101083.22;2566849;30;137865;-39
2021/10/22 06:30:40;;;;;;;9.15;1.90;;;6.00;99.90;;;4.41;89.79;101085.44;2568067;30;137990;-39
2021/10/22 06:33:07;;;;;;;8.32;2.05;;;6.10;99.90;;;4.40;88.82;101090.00;2567562;30;139229;-39
2021/10/22 06:35:36;;;;;;;7.85;2.20;;;6.10;99.90;;;4.44;89.31;101083.25;2567879;30;138456;-39
2021/10/22 06:38:04;;;;;;;8.93;2.38;;;6.10;99.90;;;4.50;88.56;101097.09;2567657;30;138552;-39
2021/10/22 06:40:31;;;;;;;9.07;2.00;;;6.10;99.90;;;4.52;88.83;101089.69;2569026;30;137459;-39
2021/10/22 06:42:59;;;;;;;7.10;1.90;;;6.20;99.90;;;4.58;88.65;101091.72;2565895;30;137366;-39
2021/10/22 06:45:27;;;;;;;6.38;1.88;;;6.20;99.90;;;4.68;87.89;101097.81;2567624;30;136902;-39
2021/10/22 06:47:55;;;;;;;;;;;6.30;99.90;;;4.66;87.60;101097.13;2568143;30;137258;-40
2021/10/22 06:50:22;;;;;;;5.75;1.75;;;6.30;99.90;;;4.71;87.77;101100.16;2567019;30;137708;-39
2021/10/22 06:52:50;;;;;;;8.25;1.85;;;6.40;99.90;;;4.79;88.10;101099.34;2568199;30;137371;-39
2021/10/22 06:55:18;;;;;;;12.43;1.95;;;6.40;99.90;;;4.83;88.06;101095.28;2567349;30;137555;-40
2021/10/22 06:57:45;;;;;;;6.88;1.73;;;6.40;99.90;;;4.92;86.90;101098.84;2567600;30;139301;-39
2021/10/22 07:00:13;;;;;;;6.13;1.58;;;6.50;99.90;;;4.88;87.38;101102.91;2567982;30;137446;-40
2021/10/22 07:02:52;;;;;;;5.55;1.83;;;6.50;99.90;;;4.90;87.87;101109.00;2568617;30;139385;-40
2021/10/22 07:08:12;;;;;;;7.43;1.88;;;6.60;99.90;;;5.19;86.22;101104.94;2566797;30;138284;-40
2021/10/22 07:10:40;;;;;;;6.25;1.70;;;6.70;99.90;;;5.21;85.66;101100.19;2569001;30;138034;-39
2021/10/22 07:13:09;;;;;;;6.95;2.03;;;6.80;99.90;;;5.26;85.97;101116.75;2568797;30;137218;-39
2021/10/22 07:15:37;;;;;;;6.88;1.75;;;6.80;99.90;;;5.32;86.51;101120.66;2567688;30;136984;-40
2021/10/22 07:18:04;;;;;;;9.85;2.30;;;6.90;99.90;;;5.37;86.10;101126.38;2567894;30;136919;-40
2021/10/22 07:20:34;;;;;;;5.07;1.70;;;7.00;99.90;;;5.51;86.05;101124.00;2567212;30;137984;-40
2021/10/22 07:23:07;;;;;;;8.65;1.80;;;7.00;99.90;;;5.55;86.01;101118.06;2568444;30;137242;-39
2021/10/22 07:25:39;;;;;;;6.20;1.42;;;7.10;99.90;;;5.72;86.24;101134.28;2568288;30;136855;-40
2021/10/22 07:28:14;;;;;;;8.63;1.83;;;7.20;99.90;;;5.74;86.32;101116.88;2566548;30;138160;-39
2021/10/22 07:30:45;;;;;;;5.38;1.75;;;7.30;99.90;;;5.85;84.56;101133.75;2569302;30;137681;-40
2021/10/22 07:33:15;;;;;;;6.95;1.85;;;7.40;99.90;;;5.90;83.85;101140.34;2568010;30;138992;-39
2021/10/22 07:35:42;;;;;;;9.70;2.00;;;7.40;99.90;;;5.89;84.13;101138.66;2567436;30;138329;-40
2021/10/22 07:38:11;;;;;;;6.68;1.60;;;7.40;99.90;;;5.86;84.35;101132.72;2566827;30;137436;-39
2021/10/22 07:40:45;;;;;;;6.97;1.60;;;7.40;99.90;;;5.90;84.67;101137.63;2568406;30;137444;-39
2021/10/22 07:43:17;;;;;;;5.38;1.70;;;7.40;99.90;;;5.97;83.99;101126.09;2565083;30;138482;-39
2021/10/22 07:45:45;;;;;;;7.50;2.22;;;7.50;99.90;;;5.94;84.02;101116.44;2566757;30;137008;-39
2021/10/22 07:48:14;;;;;;;8.40;1.77;;;7.50;99.90;;;5.99;83.68;101133.03;2565232;30;138262;-40
2021/10/22 07:50:42;;;;;;;8.20;2.30;;;7.50;99.90;;;6.05;85.19;101131.50;2567576;30;138271;-39
2021/10/22 07:53:10;;;;;;;6.93;1.88;;;7.60;99.90;;;6.10;84.49;101128.28;2567689;30;138357;-40
2021/10/22 07:55:38;;;;;;;6.05;1.75;;;7.60;99.90;;;6.25;84.40;101134.66;2567698;30;137051;-39
2021/10/22 07:58:06;;;;;;;6.72;2.05;;;7.70;99.90;;;6.36;84.15;101132.56;2567445;30;139103;-40
2021/10/22 08:00:33;;;;;;;;;;;7.80;99.90;;;6.44;82.63;101129.81;2567958;30;137798;-39
2021/10/22 08:03:01;;;;;;;8.75;1.70;;;7.90;99.90;;;6.55;83.46;101148.41;2567650;30;138231;-40
2021/10/22 08:05:29;;;;;;;7.03;1.83;;;8.00;99.90;;;6.66;82.90;101147.16;2568254;30;138271;-40
2021/10/22 08:07:57;;;;;;;9.63;2.85;;;8.10;99.90;;;6.76;81.16;101144.19;2568084;30;138128;-40
2021/10/22 08:10:24;;;;;;;9.73;2.30;;;8.20;99.90;;;6.87;81.18;101157.34;2567996;30;137325;-39
2021/10/22 08:12:52;;;;;;;11.20;1.85;;;8.30;99.90;;;6.95;80.21;101153.75;2567791;30;138284;-39
2021/10/22 08:15:28;;;;;;;11.20;1.95;;;8.40;99.90;;;7.01;81.54;101158.44;2567091;30;137249;-40
2021/10/22 08:17:57;;;;;;;5.10;1.60;;;8.50;99.90;;;7.19;81.56;101154.59;2569235;30;138077;-40
2021/10/22 08:20:27;;;;;;;8.13;1.77;;;8.60;99.90;;;7.26;80.41;101155.53;2567766;30;138274;-41
2021/10/22 08:22:54;;;;;;;5.68;1.88;;;8.70;99.90;;;7.07;81.67;101109.91;2571589;30;139190;-38
2021/10/22 08:25:22;;;;;;;10.82;1.48;;;8.80;99.90;;;7.43;80.37;101166.28;2568430;30;138346;-38
2021/10/22 08:27:50;;;;;;;6.50;1.30;;;8.90;99.90;;;7.39;79.29;101173.06;2569172;30;136899;-37
2021/10/22 08:30:25;;;;;;;6.85;1.50;;;8.90;99.90;;;7.36;80.49;101165.28;2567610;30;136879;-37
2021/10/22 08:32:56;;;;;;;7.82;1.85;;;8.90;99.90;;;7.42;81.15;101173.56;2570599;30;140250;-38
2021/10/22 08:35:30;;;;;;;4.80;1.30;;;8.90;99.90;;;7.39;80.21;101171.22;2568722;30;136685;-38
2021/10/22 08:37:58;;;;;;;4.65;1.40;;;8.90;99.90;;;7.42;80.50;101172.69;2569575;30;137664;-38
2021/10/22 08:40:27;;;;;;;;;;;8.90;99.90;;;7.50;80.80;101186.22;2571650;30;137866;-38
2021/10/22 08:42:54;;;;;;;7.25;1.48;;;9.00;99.90;;;7.56;79.55;101180.03;2570976;30;138007;-38
2021/10/22 08:45:22;;;;;;;7.07;1.50;;;9.00;99.90;;;7.63;81.20;101175.56;2566679;30;137775;-37
2021/10/22 08:47:50;;;;;;;9.05;1.60;;;9.10;99.90;;;7.75;80.13;101175.13;2565200;30;137234;-37
2021/10/22 08:50:21;;;;;;;6.15;1.38;;;9.20;99.90;;;7.90;79.37;101178.69;2568739;30;137293;-37
2021/10/22 08:52:51;;;;;;;7.82;1.70;;;9.30;99.90;;;7.94;78.92;101175.59;2569241;30;138190;-38
2021/10/22 08:55:21;;;;;;;6.22;1.33;;;9.40;99.90;;;8.03;79.57;101188.09;2570751;30;137026;-38
2021/10/22 08:57:50;;;;;;;6.85;1.42;;;9.50;99.90;;;8.05;79.52;101181.41;2569101;30;137149;-38
2021/10/22 09:00:22;;;;;;;6.38;1.33;;;9.50;99.90;;;8.13;79.15;101185.09;2568623;30;137148;-38
2021/10/22 09:02:52;;;;;;;9.73;1.70;;;9.60;99.90;;;8.18;77.51;101183.47;2569467;30;138314;-39
2021/10/22 09:05:23;;;;;;;4.28;1.50;;;9.60;99.90;;;8.24;78.52;101170.19;2569946;30;137711;-38
2021/10/22 09:07:54;;;;;;;6.38;1.75;;;9.70;99.90;;;8.26;78.15;101182.53;2568767;30;138309;-38
2021/10/22 09:10:28;;;;;;;8.15;1.70;;;9.70;99.90;;;8.29;77.37;101182.16;2569044;30;136970;-38
2021/10/22 09:13:03;;;;;;;4.60;1.30;;;9.80;99.90;;;8.32;77.90;101191.81;2566487;30;137230;-38
2021/10/22 09:15:37;;;;;;;5.90;1.52;;;9.80;99.90;;;8.38;77.92;101191.06;2567197;30;137644;-38
2021/10/22 09:18:20;;;;;;;4.82;1.50;;;9.80;99.90;;;8.43;78.08;101190.50;2568242;30;137325;-39
2021/10/22 09:20:54;;;;;;;7.07;1.50;;;9.80;99.90;;;8.49;77.82;101185.19;2567651;30;137340;-38
2021/10/22 09:23:33;;;;;;;6.75;1.83;;;9.90;99.90;;;8.57;77.06;101181.50;2569326;30;139176;-38
2021/10/22 09:26:23;;;;;;;7.57;1.45;;;10.00;99.90;;;8.71;78.23;101190.66;2570795;30;136989;-38
2021/10/22 09:28:53;;;;;;;6.40;1.48;;;10.10;99.90;;;8.88;77.39;101174.94;2568979;30;137761;-38
2021/10/22 09:31:23;;;;;;;5.20;1.10;;;10.20;99.90;;;9.10;76.23;101187.75;2570341;30;136785;-38
2021/10/22 09:33:57;;;;;;;12.00;2.80;;;10.40;99.90;;;9.24;76.68;101186.00;2567843;30;139985;-38
2021/10/22 09:36:40;;;;;;;7.45;1.88;;;10.60;99.90;;;9.24;75.08;101183.28;2567953;30;138548;-38
2021/10/22 09:39:20;;;;;;;3.95;1.02;;;10.60;99.90;;;9.24;75.58;101175.94;2569367;30;138668;-38
2021/10/22 09:42:00;;;;;;;9.02;1.48;;;10.70;99.90;;;9.14;75.12;101184.41;2569649;30;137643;-38
2021/10/22 09:44:39;;;;;;;7.20;1.33;;;10.60;99.90;;;9.10;77.03;101182.31;2568221;30;139421;-38
2021/10/22 09:47:06;;;;;;;4.60;1.27;;;10.50;99.90;;;9.23;75.90;101170.69;2567943;30;137449;-38
2021/10/22 09:49:40;;;;;;;6.90;1.92;;;10.60;99.90;;;9.39;74.13;101181.31;2566566;30;137282;-38
2021/10/22 09:52:24;;;;;;;8.00;1.85;;;10.70;99.90;;;9.54;75.44;101197.56;2569189;30;137198;-38
2021/10/22 09:55:12;;;;;;;6.82;2.17;;;10.80;99.90;;;9.66;73.32;101189.69;2568660;30;138117;-38
2021/10/22 09:57:44;;;;;;;9.95;1.73;;;11.00;99.90;;;9.80;74.39;101185.19;2570524;30;137716;-38
2021/10/22 10:00:20;;;;;;;6.13;1.42;;;11.10;99.90;;;9.95;76.05;101187.84;2568182;30;138416;-38
2021/10/22 10:02:48;;;;;;;10.38;1.75;;;11.20;99.90;;;10.00;72.20;101185.34;2568853;30;138359;-38
2021/10/22 10:05:18;;;;;;;8.00;1.17;;;11.30;99.90;;;10.04;71.18;101183.91;2568470;30;138271;-38
2021/10/22 10:07:46;;;;;;;7.28;1.15;;;11.40;99.90;;;10.08;70.60;101181.63;2568657;30;137630;-38
2021/10/22 10:10:15;;;;;;;5.18;1.30;;;11.50;99.90;;;10.08;71.63;101178.91;2571062;30;138288;-38
2021/10/22 10:12:45;;;;;;;5.40;1.17;;;11.50;99.90;;;10.09;70.79;101188.75;2569259;30;137651;-38
2021/10/22 10:15:13;;;;;;;4.55;1.05;;;11.50;99.90;;;10.04;72.08;101172.13;2569510;30;137272;-38
2021/10/22 10:17:50;;;;;;;8.05;1.40;;;11.50;99.90;;;9.96;70.78;101175.03;2568640;30;138652;-38
2021/10/22 10:20:26;;;;;;;3.42;0.95;;;11.40;99.90;;;10.10;71.13;101186.84;2566469;30;139159;-38
2021/10/22 10:22:56;;;;;;;5.63;1.83;;;11.50;99.90;;;10.05;70.91;101182.00;2567881;30;137552;-38
2021/10/22 10:25:25;;;;;;;7.43;1.40;;;11.50;99.90;;;10.00;71.34;101187.22;2571853;30;138533;-38
2021/10/22 10:27:56;;;;;;;6.60;1.23;;;11.40;99.90;;;9.87;70.48;101174.34;2570032;30;136822;-38
2021/10/22 10:30:31;;;;;;;4.78;1.20;;;11.40;99.90;;;9.87;71.69;101183.38;2570177;30;139065;-38
2021/10/22 10:33:01;;;;;;;4.10;1.02;;;11.30;99.90;;;10.02;71.76;101196.03;2569527;30;138296;-38
2021/10/22 10:35:43;;;;;;;5.63;0.93;;;11.40;99.90;;;10.30;69.96;101197.88;2569366;30;138266;-38